sensor_id;sensor_type;location;lat;lon;timestamp;pressure;altitude;pressure_sealevel;temperature;humidity
42887;BME280;29032;56.028;92.904;2023-04-22T00:00:37;100623.66;;;3.00;50.95
42887;BME280;29032;56.028;92.904;2023-04-22T00:05:39;100623.66;;;3.13;50.34
42887;BME280;29032;56.028;92.904;2023-04-22T00:10:43;100617.50;;;3.22;49.94
42887;BME280;29032;56.028;92.904;2023-04-22T00:15:45;100629.22;;;3.22;50.29
42887;BME280;29032;56.028;92.904;2023-04-22T00:21:05;100630.44;;;3.34;49.87
42887;BME280;29032;56.028;92.904;2023-04-22T00:26:09;100627.22;;;3.35;49.85
42887;BME280;29032;56.028;92.904;2023-04-22T00:31:29;100633.53;;;3.58;49.33
42887;BME280;29032;56.028;92.904;2023-04-22T00:36:31;100644.53;;;3.58;48.77
42887;BME280;29032;56.028;92.904;2023-04-22T00:41:35;100653.38;;;3.75;49.03
42887;BME280;29032;56.028;92.904;2023-04-22T00:51:57;100670.41;;;4.04;47.95
42887;BME280;29032;56.028;92.904;2023-04-22T00:57:01;100667.72;;;4.13;47.59
42887;BME280;29032;56.028;92.904;2023-04-22T01:02:22;100666.84;;;4.16;47.07
42887;BME280;29032;56.028;92.904;2023-04-22T01:07:24;100678.22;;;4.28;47.23
42887;BME280;29032;56.028;92.904;2023-04-22T01:12:28;100675.88;;;4.39;47.17
42887;BME280;29032;56.028;92.904;2023-04-22T01:17:30;100719.03;;;4.51;46.98
42887;BME280;29032;56.028;92.904;2023-04-22T01:22:40;100669.41;;;4.55;45.75
42887;BME280;29032;56.028;92.904;2023-04-22T01:28:03;100677.66;;;4.33;46.20
42887;BME280;29032;56.028;92.904;2023-04-22T01:33:05;100668.34;;;4.30;46.32
42887;BME280;29032;56.028;92.904;2023-04-22T01:38:09;100661.88;;;4.24;46.47
42887;BME280;29032;56.028;92.904;2023-04-22T01:43:12;100655.53;;;4.14;46.90
42887;BME280;29032;56.028;92.904;2023-04-22T01:48:14;100653.69;;;4.11;46.75
42887;BME280;29032;56.028;92.904;2023-04-22T01:58:40;100651.66;;;4.24;47.44
42887;BME280;29032;56.028;92.904;2023-04-22T02:04:00;100665.84;;;4.45;47.14
42887;BME280;29032;56.028;92.904;2023-04-22T02:09:04;100657.94;;;4.56;46.52
42887;BME280;29032;56.028;92.904;2023-04-22T02:19:46;100666.34;;;4.84;45.37
42887;BME280;29032;56.028;92.904;2023-04-22T02:24:49;100650.78;;;4.90;45.43
42887;BME280;29032;56.028;92.904;2023-04-22T02:29:52;100659.47;;;5.10;45.38
42887;BME280;29032;56.028;92.904;2023-04-22T02:34:54;100652.78;;;5.20;44.80
42887;BME280;29032;56.028;92.904;2023-04-22T02:39:56;100663.22;;;5.35;45.10
42887;BME280;29032;56.028;92.904;2023-04-22T02:45:00;100661.09;;;5.48;44.78
42887;BME280;29032;56.028;92.904;2023-04-22T02:50:02;100660.50;;;5.62;44.14
42887;BME280;29032;56.028;92.904;2023-04-22T02:55:05;100666.34;;;5.73;43.51
42887;BME280;29032;56.028;92.904;2023-04-22T03:00:09;100668.50;;;5.97;43.36
42887;BME280;29032;56.028;92.904;2023-04-22T03:05:11;100673.09;;;6.27;43.01
42887;BME280;29032;56.028;92.904;2023-04-22T03:10:14;100672.88;;;6.58;42.36
42887;BME280;29032;56.028;92.904;2023-04-22T03:15:18;100673.94;;;6.70;41.48
42887;BME280;29032;56.028;92.904;2023-04-22T03:20:20;100666.28;;;6.65;41.54
42887;BME280;29032;56.028;92.904;2023-04-22T03:25:41;100670.06;;;6.86;41.68
42887;BME280;29032;56.028;92.904;2023-04-22T03:30:45;100668.97;;;6.92;41.29
42887;BME280;29032;56.028;92.904;2023-04-22T03:35:47;100671.34;;;7.09;40.32
42887;BME280;29032;56.028;92.904;2023-04-22T03:46:16;100678.59;;;7.39;38.19
42887;BME280;29032;56.028;92.904;2023-04-22T03:51:50;100678.13;;;7.65;38.98
42887;BME280;29032;56.028;92.904;2023-04-22T03:56:57;100678.63;;;7.63;37.69
42887;BME280;29032;56.028;92.904;2023-04-22T04:02:02;100681.03;;;7.70;37.46
42887;BME280;29032;56.028;92.904;2023-04-22T04:07:06;100669.25;;;7.85;37.33
42887;BME280;29032;56.028;92.904;2023-04-22T04:12:08;100677.13;;;7.77;37.60
42887;BME280;29032;56.028;92.904;2023-04-22T04:17:35;100672.13;;;7.90;37.53
42887;BME280;29032;56.028;92.904;2023-04-22T04:22:38;100678.91;;;7.89;36.87
42887;BME280;29032;56.028;92.904;2023-04-22T04:27:42;100677.34;;;8.12;36.38
42887;BME280;29032;56.028;92.904;2023-04-22T04:38:27;100667.06;;;8.42;36.32
42887;BME280;29032;56.028;92.904;2023-04-22T04:43:29;100662.31;;;8.57;35.27
42887;BME280;29032;56.028;92.904;2023-04-22T04:49:01;100662.50;;;8.83;35.21
42887;BME280;29032;56.028;92.904;2023-04-22T04:54:06;100671.66;;;8.89;34.93
42887;BME280;29032;56.028;92.904;2023-04-22T05:04:35;100672.25;;;9.29;35.21
42887;BME280;29032;56.028;92.904;2023-04-22T05:09:38;100664.13;;;9.40;34.41
42887;BME280;29032;56.028;92.904;2023-04-22T05:14:40;100671.47;;;9.63;34.08
42887;BME280;29032;56.028;92.904;2023-04-22T05:25:05;100655.88;;;10.07;32.03
42887;BME280;29032;56.028;92.904;2023-04-22T05:30:26;100652.00;;;9.98;31.54
42887;BME280;29032;56.028;92.904;2023-04-22T05:35:48;100663.41;;;10.06;31.28
42887;BME280;29032;56.028;92.904;2023-04-22T05:40:50;100642.19;;;10.23;29.55
42887;BME280;29032;56.028;92.904;2023-04-22T05:46:10;100636.03;;;10.40;30.26
42887;BME280;29032;56.028;92.904;2023-04-22T05:51:16;100638.53;;;10.38;30.22
42887;BME280;29032;56.028;92.904;2023-04-22T05:56:19;100644.53;;;10.31;30.46
42887;BME280;29032;56.028;92.904;2023-04-22T06:06:45;100652.31;;;10.06;30.39
42887;BME280;29032;56.028;92.904;2023-04-22T06:12:07;100650.25;;;10.21;30.82
42887;BME280;29032;56.028;92.904;2023-04-22T06:17:10;100641.31;;;10.38;29.99
42887;BME280;29032;56.028;92.904;2023-04-22T06:22:13;100635.41;;;10.82;28.55
42887;BME280;29032;56.028;92.904;2023-04-22T06:27:34;100634.00;;;10.98;26.99
42887;BME280;29032;56.028;92.904;2023-04-22T06:32:37;100639.38;;;11.07;25.37
42887;BME280;29032;56.028;92.904;2023-04-22T06:37:59;100639.84;;;11.00;23.59
42887;BME280;29032;56.028;92.904;2023-04-22T06:48:43;100641.09;;;10.99;24.45
42887;BME280;29032;56.028;92.904;2023-04-22T06:54:07;100637.63;;;11.09;25.62
42887;BME280;29032;56.028;92.904;2023-04-22T06:59:09;100639.47;;;11.24;25.42
42887;BME280;29032;56.028;92.904;2023-04-22T07:04:11;100632.75;;;11.42;23.87
42887;BME280;29032;56.028;92.904;2023-04-22T07:14:54;100641.16;;;11.58;23.01
42887;BME280;29032;56.028;92.904;2023-04-22T07:19:56;100634.81;;;11.52;23.79
42887;BME280;29032;56.028;92.904;2023-04-22T07:25:17;100639.28;;;11.38;22.91
42887;BME280;29032;56.028;92.904;2023-04-22T07:30:20;100641.53;;;11.29;23.12
42887;BME280;29032;56.028;92.904;2023-04-22T07:35:23;100641.22;;;11.21;22.38
42887;BME280;29032;56.028;92.904;2023-04-22T07:40:25;100638.50;;;11.27;23.25
42887;BME280;29032;56.028;92.904;2023-04-22T07:45:46;100643.88;;;11.42;24.18
42887;BME280;29032;56.028;92.904;2023-04-22T08:01:46;100647.13;;;11.40;26.22
42887;BME280;29032;56.028;92.904;2023-04-22T08:07:06;100659.31;;;11.48;26.44
42887;BME280;29032;56.028;92.904;2023-04-22T08:12:08;100648.31;;;11.22;26.36
42887;BME280;29032;56.028;92.904;2023-04-22T08:17:12;100646.25;;;11.17;26.67
42887;BME280;29032;56.028;92.904;2023-04-22T08:22:14;100642.97;;;11.13;25.95
42887;BME280;29032;56.028;92.904;2023-04-22T08:27:16;100642.97;;;11.13;26.02
42887;BME280;29032;56.028;92.904;2023-04-22T08:32:19;100642.66;;;11.11;26.72
42887;BME280;29032;56.028;92.904;2023-04-22T08:37:22;100646.72;;;11.10;26.53
42887;BME280;29032;56.028;92.904;2023-04-22T08:42:24;100638.97;;;11.20;26.40
42887;BME280;29032;56.028;92.904;2023-04-22T08:47:30;100643.97;;;11.16;26.08
42887;BME280;29032;56.028;92.904;2023-04-22T08:52:32;100642.31;;;10.92;26.44
42887;BME280;29032;56.028;92.904;2023-04-22T08:57:35;100647.09;;;10.92;26.50
42887;BME280;29032;56.028;92.904;2023-04-22T09:02:40;100642.97;;;11.13;26.92
42887;BME280;29032;56.028;92.904;2023-04-22T09:08:03;100642.16;;;11.50;26.93
42887;BME280;29032;56.028;92.904;2023-04-22T09:13:06;100629.94;;;11.96;26.09
42887;BME280;29032;56.028;92.904;2023-04-22T09:18:10;100645.13;;;12.00;25.05
42887;BME280;29032;56.028;92.904;2023-04-22T09:23:12;100638.56;;;12.09;24.30
42887;BME280;29032;56.028;92.904;2023-04-22T09:28:17;100643.63;;;12.05;24.76
42887;BME280;29032;56.028;92.904;2023-04-22T09:33:24;100640.16;;;12.21;24.51
42887;BME280;29032;56.028;92.904;2023-04-22T09:44:10;100643.47;;;12.92;22.87
42887;BME280;29032;56.028;92.904;2023-04-22T09:49:16;100651.03;;;13.31;22.92
42887;BME280;29032;56.028;92.904;2023-04-22T09:54:18;100645.97;;;13.13;23.51
42887;BME280;29032;56.028;92.904;2023-04-22T09:59:21;100658.66;;;12.91;23.41
42887;BME280;29032;56.028;92.904;2023-04-22T10:04:43;100657.84;;;13.30;24.65
42887;BME280;29032;56.028;92.904;2023-04-22T10:09:45;100662.63;;;14.16;22.83
42887;BME280;29032;56.028;92.904;2023-04-22T10:20:15;100680.34;;;17.00;21.34
42887;BME280;29032;56.028;92.904;2023-04-22T10:25:21;100682.72;;;18.49;20.06
42887;BME280;29032;56.028;92.904;2023-04-22T10:30:27;100680.72;;;19.41;18.42
42887;BME280;29032;56.028;92.904;2023-04-22T10:35:31;100686.81;;;19.03;18.27
42887;BME280;29032;56.028;92.904;2023-04-22T10:40:33;100681.53;;;16.92;19.07
42887;BME280;29032;56.028;92.904;2023-04-22T10:45:35;100681.22;;;15.39;20.15
42887;BME280;29032;56.028;92.904;2023-04-22T10:50:39;100681.47;;;14.51;20.73
42887;BME280;29032;56.028;92.904;2023-04-22T10:55:49;100678.72;;;13.93;21.76
42887;BME280;29032;56.028;92.904;2023-04-22T11:00:52;100677.09;;;13.45;22.37
42887;BME280;29032;56.028;92.904;2023-04-22T11:06:13;100678.38;;;13.33;23.23
42887;BME280;29032;56.028;92.904;2023-04-22T11:11:16;100671.56;;;13.11;23.24
42887;BME280;29032;56.028;92.904;2023-04-22T11:16:21;100670.81;;;13.05;23.41
42887;BME280;29032;56.028;92.904;2023-04-22T11:37:26;100685.75;;;12.74;23.53
42887;BME280;29032;56.028;92.904;2023-04-22T11:42:29;100684.75;;;12.66;22.97
42887;BME280;29032;56.028;92.904;2023-04-22T11:47:31;100688.53;;;12.52;23.00
42887;BME280;29032;56.028;92.904;2023-04-22T11:52:49;100681.19;;;12.49;23.93
42887;BME280;29032;56.028;92.904;2023-04-22T11:57:53;100694.56;;;12.28;23.74
42887;BME280;29032;56.028;92.904;2023-04-22T12:02:57;100693.97;;;12.12;24.09
42887;BME280;29032;56.028;92.904;2023-04-22T12:08:02;100692.69;;;12.08;23.58
42887;BME280;29032;56.028;92.904;2023-04-22T12:13:04;100692.19;;;12.04;23.43
42887;BME280;29032;56.028;92.904;2023-04-22T12:18:06;100687.84;;;12.03;23.81
42887;BME280;29032;56.028;92.904;2023-04-22T12:23:13;100694.97;;;12.09;23.97
42887;BME280;29032;56.028;92.904;2023-04-22T12:28:16;100708.09;;;11.98;24.53
42887;BME280;29032;56.028;92.904;2023-04-22T12:33:36;100705.63;;;12.11;24.73
42887;BME280;29032;56.028;92.904;2023-04-22T12:38:40;100707.81;;;11.96;24.07
42887;BME280;29032;56.028;92.904;2023-04-22T12:43:42;100708.53;;;11.85;24.58
42887;BME280;29032;56.028;92.904;2023-04-22T12:49:03;100698.75;;;12.01;24.71
42887;BME280;29032;56.028;92.904;2023-04-22T12:54:07;100705.78;;;11.90;25.33
42887;BME280;29032;56.028;92.904;2023-04-22T12:59:09;100705.97;;;11.76;26.54
42887;BME280;29032;56.028;92.904;2023-04-22T13:04:11;100707.59;;;11.51;26.20
42887;BME280;29032;56.028;92.904;2023-04-22T13:09:15;100709.78;;;11.35;26.72
42887;BME280;29032;56.028;92.904;2023-04-22T13:14:17;100714.94;;;11.17;26.73
42887;BME280;29032;56.028;92.904;2023-04-22T13:19:19;100719.38;;;11.03;27.38
42887;BME280;29032;56.028;92.904;2023-04-22T13:24:23;100722.56;;;10.90;27.56
42887;BME280;29032;56.028;92.904;2023-04-22T13:29:25;100742.38;;;10.77;27.85
42887;BME280;29032;56.028;92.904;2023-04-22T13:40:09;100743.00;;;10.41;28.04
42887;BME280;29032;56.028;92.904;2023-04-22T13:45:11;100753.41;;;10.25;28.47
42887;BME280;29032;56.028;92.904;2023-04-22T13:50:31;100754.50;;;10.34;27.70
42887;BME280;29032;56.028;92.904;2023-04-22T13:55:35;100759.22;;;10.48;28.09
42887;BME280;29032;56.028;92.904;2023-04-22T14:00:37;100762.13;;;10.59;27.84
42887;BME280;29032;56.028;92.904;2023-04-22T14:11:19;100774.09;;;10.91;27.99
42887;BME280;29032;56.028;92.904;2023-04-22T14:16:39;100772.19;;;10.57;28.14
42887;BME280;29032;56.028;92.904;2023-04-22T14:21:41;100783.16;;;10.45;27.94
42887;BME280;29032;56.028;92.904;2023-04-22T14:26:45;100789.22;;;10.44;28.07
42887;BME280;29032;56.028;92.904;2023-04-22T14:31:47;100776.28;;;10.41;28.13
42887;BME280;29032;56.028;92.904;2023-04-22T14:36:49;100784.56;;;10.35;28.16
42887;BME280;29032;56.028;92.904;2023-04-22T14:41:52;100793.59;;;10.30;28.73
42887;BME280;29032;56.028;92.904;2023-04-22T14:46:54;100784.97;;;10.08;28.76
42887;BME280;29032;56.028;92.904;2023-04-22T14:51:56;100789.34;;;9.94;28.96
42887;BME280;29032;56.028;92.904;2023-04-22T14:57:00;100797.00;;;9.84;29.18
42887;BME280;29032;56.028;92.904;2023-04-22T15:02:20;100792.47;;;9.66;29.37
42887;BME280;29032;56.028;92.904;2023-04-22T15:07:23;100790.88;;;9.60;30.36
42887;BME280;29032;56.028;92.904;2023-04-22T15:12:27;100797.56;;;9.53;30.09
42887;BME280;29032;56.028;92.904;2023-04-22T15:17:29;100790.44;;;9.32;30.50
42887;BME280;29032;56.028;92.904;2023-04-22T15:22:31;100796.34;;;9.10;30.26
42887;BME280;29032;56.028;92.904;2023-04-22T15:27:35;100798.22;;;8.89;31.13
42887;BME280;29032;56.028;92.904;2023-04-22T15:32:55;100794.69;;;8.74;30.44
42887;BME280;29032;56.028;92.904;2023-04-22T15:38:16;100802.84;;;8.53;31.42
42887;BME280;29032;56.028;92.904;2023-04-22T15:43:19;100805.53;;;8.24;32.07
42887;BME280;29032;56.028;92.904;2023-04-22T15:48:21;100804.69;;;8.08;32.22
42887;BME280;29032;56.028;92.904;2023-04-22T15:53:23;100814.00;;;7.96;32.08
42887;BME280;29032;56.028;92.904;2023-04-22T15:58:27;100812.34;;;7.80;32.55
42887;BME280;29032;56.028;92.904;2023-04-22T16:03:48;100817.81;;;7.66;32.60
42887;BME280;29032;56.028;92.904;2023-04-22T16:08:50;100807.41;;;7.51;32.63
42887;BME280;29032;56.028;92.904;2023-04-22T16:13:54;100813.28;;;7.44;32.64
42887;BME280;29032;56.028;92.904;2023-04-22T16:19:14;100817.41;;;7.49;32.37
42887;BME280;29032;56.028;92.904;2023-04-22T16:24:16;100819.44;;;7.30;32.98
42887;BME280;29032;56.028;92.904;2023-04-22T16:29:38;100825.41;;;7.38;32.63
42887;BME280;29032;56.028;92.904;2023-04-22T16:40:00;100825.97;;;6.90;34.40
42887;BME280;29032;56.028;92.904;2023-04-22T16:45:22;100831.91;;;6.89;34.81
42887;BME280;29032;56.028;92.904;2023-04-22T16:50:24;100837.59;;;6.49;35.45
42887;BME280;29032;56.028;92.904;2023-04-22T16:55:26;100838.38;;;6.40;35.66
42887;BME280;29032;56.028;92.904;2023-04-22T17:00:48;100843.72;;;6.53;36.13
42887;BME280;29032;56.028;92.904;2023-04-22T17:05:50;100851.38;;;6.39;35.76
42887;BME280;29032;56.028;92.904;2023-04-22T17:10:52;100845.84;;;6.30;35.89
42887;BME280;29032;56.028;92.904;2023-04-22T17:21:15;100857.28;;;6.10;36.50
42887;BME280;29032;56.028;92.904;2023-04-22T17:31:39;100862.81;;;5.70;37.17
42887;BME280;29032;56.028;92.904;2023-04-22T17:36:41;100867.31;;;5.55;37.60
42887;BME280;29032;56.028;92.904;2023-04-22T17:41:43;100879.50;;;5.45;37.80
42887;BME280;29032;56.028;92.904;2023-04-22T17:46:47;100878.53;;;5.39;38.38
42887;BME280;29032;56.028;92.904;2023-04-22T17:51:49;100870.56;;;5.31;38.77
42887;BME280;29032;56.028;92.904;2023-04-22T17:56:51;100869.41;;;5.20;38.91
42887;BME280;29032;56.028;92.904;2023-04-22T18:01:55;100877.66;;;5.20;39.41
42887;BME280;29032;56.028;92.904;2023-04-22T18:06:57;100881.19;;;5.20;39.05
42887;BME280;29032;56.028;92.904;2023-04-22T18:11:59;100885.59;;;5.18;39.61
42887;BME280;29032;56.028;92.904;2023-04-22T18:17:02;100881.19;;;5.20;39.72
42887;BME280;29032;56.028;92.904;2023-04-22T18:22:05;100879.31;;;5.17;39.44
42887;BME280;29032;56.028;92.904;2023-04-22T18:27:07;100881.13;;;5.11;39.68
42887;BME280;29032;56.028;92.904;2023-04-22T18:32:28;100880.22;;;5.14;39.88
42887;BME280;29032;56.028;92.904;2023-04-22T18:37:49;100883.56;;;5.09;39.95
42887;BME280;29032;56.028;92.904;2023-04-22T18:42:51;100874.66;;;5.05;40.14
42887;BME280;29032;56.028;92.904;2023-04-22T18:48:13;100879.91;;;5.12;39.32
42887;BME280;29032;56.028;92.904;2023-04-22T18:53:15;100878.66;;;4.91;39.94
42887;BME280;29032;56.028;92.904;2023-04-22T18:58:17;100876.72;;;4.79;40.39
42887;BME280;29032;56.028;92.904;2023-04-22T19:03:20;100869.03;;;4.74;40.81
42887;BME280;29032;56.028;92.904;2023-04-22T19:08:22;100869.84;;;4.62;40.81
42887;BME280;29032;56.028;92.904;2023-04-22T19:19:05;100876.25;;;4.46;41.17
42887;BME280;29032;56.028;92.904;2023-04-22T19:24:07;100872.97;;;4.38;41.42
42887;BME280;29032;56.028;92.904;2023-04-22T19:29:09;100871.91;;;4.36;41.02
42887;BME280;29032;56.028;92.904;2023-04-22T19:34:30;100874.97;;;4.38;41.02
42887;BME280;29032;56.028;92.904;2023-04-22T19:39:33;100884.22;;;4.31;41.75
42887;BME280;29032;56.028;92.904;2023-04-22T19:44:35;100875.41;;;4.36;41.35
42887;BME280;29032;56.028;92.904;2023-04-22T19:49:39;100877.47;;;4.45;41.34
42887;BME280;29032;56.028;92.904;2023-04-22T19:54:43;100877.41;;;4.36;41.55
42887;BME280;29032;56.028;92.904;2023-04-22T19:59:45;100880.94;;;4.23;41.82
42887;BME280;29032;56.028;92.904;2023-04-22T20:04:49;100883.66;;;4.23;41.96
42887;BME280;29032;56.028;92.904;2023-04-22T20:09:51;100882.38;;;4.15;41.94
42887;BME280;29032;56.028;92.904;2023-04-22T20:14:55;100892.03;;;4.07;42.33
42887;BME280;29032;56.028;92.904;2023-04-22T20:19:59;100893.56;;;3.95;42.62
42887;BME280;29032;56.028;92.904;2023-04-22T20:25:02;100887.75;;;3.81;43.12
42887;BME280;29032;56.028;92.904;2023-04-22T20:35:27;100889.50;;;3.75;42.79
42887;BME280;29032;56.028;92.904;2023-04-22T20:40:30;100903.56;;;3.77;43.11
42887;BME280;29032;56.028;92.904;2023-04-22T20:45:33;100902.69;;;3.92;42.48
42887;BME280;29032;56.028;92.904;2023-04-22T20:50:37;100904.88;;;4.10;42.37
42887;BME280;29032;56.028;92.904;2023-04-22T21:00:59;100903.97;;;4.39;41.86
42887;BME280;29032;56.028;92.904;2023-04-22T21:06:03;100915.06;;;4.35;41.75
42887;BME280;29032;56.028;92.904;2023-04-22T21:11:06;100907.19;;;4.24;42.00
42887;BME280;29032;56.028;92.904;2023-04-22T21:16:46;100921.47;;;4.45;41.29
42887;BME280;29032;56.028;92.904;2023-04-22T21:21:52;100919.03;;;4.34;41.54
42887;BME280;29032;56.028;92.904;2023-04-22T21:26:55;100913.91;;;4.23;42.08
42887;BME280;29032;56.028;92.904;2023-04-22T21:31:58;100934.56;;;4.15;42.03
42887;BME280;29032;56.028;92.904;2023-04-22T21:37:20;100931.03;;;4.28;41.12
42887;BME280;29032;56.028;92.904;2023-04-22T21:42:40;100930.47;;;4.20;41.92
42887;BME280;29032;56.028;92.904;2023-04-22T21:47:42;100933.00;;;4.14;41.80
42887;BME280;29032;56.028;92.904;2023-04-22T21:53:03;100934.78;;;4.08;41.73
42887;BME280;29032;56.028;92.904;2023-04-22T21:58:05;100932.91;;;3.80;42.13
42887;BME280;29032;56.028;92.904;2023-04-22T22:03:08;100938.47;;;3.63;42.66
42887;BME280;29032;56.028;92.904;2023-04-22T22:08:11;100934.38;;;3.55;43.12
42887;BME280;29032;56.028;92.904;2023-04-22T22:13:32;100947.78;;;3.53;43.22
42887;BME280;29032;56.028;92.904;2023-04-22T22:18:34;100949.19;;;3.45;43.12
42887;BME280;29032;56.028;92.904;2023-04-22T22:23:37;100945.88;;;3.37;43.12
42887;BME280;29032;56.028;92.904;2023-04-22T22:28:58;100938.28;;;3.41;42.96
42887;BME280;29032;56.028;92.904;2023-04-22T22:34:00;100943.91;;;3.38;43.23
42887;BME280;29032;56.028;92.904;2023-04-22T22:39:03;100946.19;;;3.39;43.59
42887;BME280;29032;56.028;92.904;2023-04-22T22:44:05;100948.94;;;3.39;43.18
42887;BME280;29032;56.028;92.904;2023-04-22T22:49:08;100950.91;;;3.39;43.58
42887;BME280;29032;56.028;92.904;2023-04-22T22:54:11;100955.06;;;3.31;43.76
42887;BME280;29032;56.028;92.904;2023-04-22T22:59:13;100959.97;;;3.23;44.11
42887;BME280;29032;56.028;92.904;2023-04-22T23:04:15;100955.59;;;3.26;43.73
42887;BME280;29032;56.028;92.904;2023-04-22T23:14:39;100960.44;;;3.34;43.61
42887;BME280;29032;56.028;92.904;2023-04-22T23:19:42;100956.97;;;3.47;43.63
42887;BME280;29032;56.028;92.904;2023-04-22T23:24:46;100964.91;;;3.57;43.49
42887;BME280;29032;56.028;92.904;2023-04-22T23:29:49;100965.91;;;3.63;42.99
42887;BME280;29032;56.028;92.904;2023-04-22T23:34:52;100983.38;;;3.69;43.21
42887;BME280;29032;56.028;92.904;2023-04-22T23:40:15;100968.09;;;3.56;43.43
42887;BME280;29032;56.028;92.904;2023-04-22T23:45:17;100967.19;;;3.46;43.29
42887;BME280;29032;56.028;92.904;2023-04-22T23:50:37;100972.06;;;3.26;43.73
